sensor_id;sensor_type;location;lat;lon;timestamp;P1;durP1;ratioP1;P2;durP2;ratioP2
1811;SDS011;904;47.814;11.134;2023-07-13T00:01:54;4.63;;;3.57;;
1811;SDS011;904;47.814;11.134;2023-07-13T00:04:21;5.50;;;3.53;;
1811;SDS011;904;47.814;11.134;2023-07-13T00:06:50;4.50;;;3.13;;
1811;SDS011;904;47.814;11.134;2023-07-13T00:09:20;4.60;;;3.50;;
1811;SDS011;904;47.814;11.134;2023-07-13T00:11:50;6.17;;;4.13;;
1811;SDS011;904;47.814;11.134;2023-07-13T00:14:19;5.13;;;3.30;;
1811;SDS011;904;47.814;11.134;2023-07-13T00:16:46;4.90;;;4.07;;
1811;SDS011;904;47.814;11.134;2023-07-13T00:19:14;7.50;;;3.90;;
1811;SDS011;904;47.814;11.134;2023-07-13T00:21:41;7.47;;;3.33;;
1811;SDS011;904;47.814;11.134;2023-07-13T00:24:10;7.67;;;3.77;;
1811;SDS011;904;47.814;11.134;2023-07-13T00:26:39;7.80;;;4.17;;
1811;SDS011;904;47.814;11.134;2023-07-13T00:29:06;6.20;;;4.10;;
1811;SDS011;904;47.814;11.134;2023-07-13T00:31:35;4.07;;;3.47;;
1811;SDS011;904;47.814;11.134;2023-07-13T00:34:08;5.10;;;2.90;;
1811;SDS011;904;47.814;11.134;2023-07-13T00:36:35;4.80;;;3.00;;
1811;SDS011;904;47.814;11.134;2023-07-13T00:39:02;5.47;;;3.97;;
1811;SDS011;904;47.814;11.134;2023-07-13T00:41:30;4.80;;;3.77;;
1811;SDS011;904;47.814;11.134;2023-07-13T00:43:57;4.20;;;3.23;;
1811;SDS011;904;47.814;11.134;2023-07-13T00:46:25;6.17;;;3.60;;
1811;SDS011;904;47.814;11.134;2023-07-13T00:48:55;4.90;;;3.50;;
1811;SDS011;904;47.814;11.134;2023-07-13T00:51:27;5.73;;;3.80;;
1811;SDS011;904;47.814;11.134;2023-07-13T00:53:58;6.43;;;3.30;;
1811;SDS011;904;47.814;11.134;2023-07-13T00:56:30;6.20;;;3.57;;
1811;SDS011;904;47.814;11.134;2023-07-13T00:58:57;5.70;;;3.50;;
1811;SDS011;904;47.814;11.134;2023-07-13T01:01:26;4.47;;;3.30;;
1811;SDS011;904;47.814;11.134;2023-07-13T01:03:55;5.50;;;3.03;;
1811;SDS011;904;47.814;11.134;2023-07-13T01:06:22;4.87;;;3.83;;
1811;SDS011;904;47.814;11.134;2023-07-13T01:08:49;5.90;;;3.23;;
1811;SDS011;904;47.814;11.134;2023-07-13T01:11:18;5.17;;;3.57;;
1811;SDS011;904;47.814;11.134;2023-07-13T01:13:47;4.37;;;3.47;;
1811;SDS011;904;47.814;11.134;2023-07-13T01:16:20;7.67;;;4.00;;
1811;SDS011;904;47.814;11.134;2023-07-13T01:18:50;4.90;;;3.40;;
1811;SDS011;904;47.814;11.134;2023-07-13T01:21:19;5.60;;;3.17;;
1811;SDS011;904;47.814;11.134;2023-07-13T01:23:46;6.47;;;4.30;;
1811;SDS011;904;47.814;11.134;2023-07-13T01:26:13;6.27;;;4.57;;
1811;SDS011;904;47.814;11.134;2023-07-13T01:28:40;6.60;;;5.10;;
1811;SDS011;904;47.814;11.134;2023-07-13T01:31:07;7.20;;;4.80;;
1811;SDS011;904;47.814;11.134;2023-07-13T01:33:36;5.77;;;4.20;;
1811;SDS011;904;47.814;11.134;2023-07-13T01:36:04;5.63;;;4.43;;
1811;SDS011;904;47.814;11.134;2023-07-13T01:38:33;5.33;;;4.00;;
1811;SDS011;904;47.814;11.134;2023-07-13T01:41:01;7.00;;;4.00;;
1811;SDS011;904;47.814;11.134;2023-07-13T01:43:28;4.73;;;3.60;;
1811;SDS011;904;47.814;11.134;2023-07-13T01:45:55;5.03;;;3.70;;
1811;SDS011;904;47.814;11.134;2023-07-13T01:48:22;10.50;;;3.40;;
1811;SDS011;904;47.814;11.134;2023-07-13T01:50:49;5.93;;;3.77;;
1811;SDS011;904;47.814;11.134;2023-07-13T01:53:16;6.40;;;4.10;;
1811;SDS011;904;47.814;11.134;2023-07-13T01:55:45;9.53;;;4.23;;
1811;SDS011;904;47.814;11.134;2023-07-13T01:58:12;6.27;;;5.10;;
1811;SDS011;904;47.814;11.134;2023-07-13T02:00:39;6.97;;;4.33;;
1811;SDS011;904;47.814;11.134;2023-07-13T02:03:06;5.03;;;4.10;;
1811;SDS011;904;47.814;11.134;2023-07-13T02:05:33;10.23;;;3.60;;
1811;SDS011;904;47.814;11.134;2023-07-13T02:08:00;7.93;;;4.40;;
1811;SDS011;904;47.814;11.134;2023-07-13T02:10:27;6.87;;;3.67;;
1811;SDS011;904;47.814;11.134;2023-07-13T02:12:56;4.87;;;3.93;;
1811;SDS011;904;47.814;11.134;2023-07-13T02:15:23;5.37;;;3.93;;
1811;SDS011;904;47.814;11.134;2023-07-13T02:17:50;4.83;;;3.23;;
1811;SDS011;904;47.814;11.134;2023-07-13T02:20:22;8.20;;;3.57;;
1811;SDS011;904;47.814;11.134;2023-07-13T02:22:49;3.60;;;2.53;;
1811;SDS011;904;47.814;11.134;2023-07-13T02:25:16;4.73;;;3.17;;
1811;SDS011;904;47.814;11.134;2023-07-13T02:27:43;6.27;;;3.90;;
1811;SDS011;904;47.814;11.134;2023-07-13T02:30:11;5.80;;;3.93;;
1811;SDS011;904;47.814;11.134;2023-07-13T02:32:38;4.10;;;3.20;;
1811;SDS011;904;47.814;11.134;2023-07-13T02:35:05;4.93;;;3.30;;
1811;SDS011;904;47.814;11.134;2023-07-13T02:37:33;4.90;;;4.03;;
1811;SDS011;904;47.814;11.134;2023-07-13T02:40:00;7.40;;;3.60;;
1811;SDS011;904;47.814;11.134;2023-07-13T02:42:28;6.23;;;3.70;;
1811;SDS011;904;47.814;11.134;2023-07-13T02:44:55;7.90;;;4.23;;
1811;SDS011;904;47.814;11.134;2023-07-13T02:47:23;6.30;;;3.50;;
1811;SDS011;904;47.814;11.134;2023-07-13T02:49:50;5.37;;;4.47;;
1811;SDS011;904;47.814;11.134;2023-07-13T02:52:17;8.30;;;4.87;;
1811;SDS011;904;47.814;11.134;2023-07-13T02:54:44;9.50;;;4.47;;
1811;SDS011;904;47.814;11.134;2023-07-13T02:57:11;4.73;;;3.63;;
1811;SDS011;904;47.814;11.134;2023-07-13T02:59:38;6.77;;;4.20;;
1811;SDS011;904;47.814;11.134;2023-07-13T03:02:05;5.97;;;3.10;;
1811;SDS011;904;47.814;11.134;2023-07-13T03:04:36;5.20;;;3.77;;
1811;SDS011;904;47.814;11.134;2023-07-13T03:07:03;7.90;;;3.13;;
1811;SDS011;904;47.814;11.134;2023-07-13T03:09:32;5.00;;;4.00;;
1811;SDS011;904;47.814;11.134;2023-07-13T03:12:00;9.73;;;4.00;;
1811;SDS011;904;47.814;11.134;2023-07-13T03:14:27;6.80;;;3.73;;
1811;SDS011;904;47.814;11.134;2023-07-13T03:16:55;5.10;;;3.47;;
1811;SDS011;904;47.814;11.134;2023-07-13T03:19:22;6.63;;;3.63;;
1811;SDS011;904;47.814;11.134;2023-07-13T03:21:51;6.13;;;3.83;;
1811;SDS011;904;47.814;11.134;2023-07-13T03:24:17;6.80;;;3.40;;
1811;SDS011;904;47.814;11.134;2023-07-13T03:26:45;4.93;;;3.33;;
1811;SDS011;904;47.814;11.134;2023-07-13T03:29:12;6.50;;;3.33;;
1811;SDS011;904;47.814;11.134;2023-07-13T03:31:39;6.33;;;3.80;;
1811;SDS011;904;47.814;11.134;2023-07-13T03:34:06;5.00;;;4.10;;
1811;SDS011;904;47.814;11.134;2023-07-13T03:36:33;5.23;;;3.90;;
1811;SDS011;904;47.814;11.134;2023-07-13T03:39:02;9.97;;;3.53;;
1811;SDS011;904;47.814;11.134;2023-07-13T03:41:33;6.33;;;4.20;;
1811;SDS011;904;47.814;11.134;2023-07-13T03:44:00;8.93;;;4.33;;
1811;SDS011;904;47.814;11.134;2023-07-13T03:46:27;7.10;;;4.27;;
1811;SDS011;904;47.814;11.134;2023-07-13T03:48:54;5.37;;;3.57;;
1811;SDS011;904;47.814;11.134;2023-07-13T03:51:21;6.50;;;3.90;;
1811;SDS011;904;47.814;11.134;2023-07-13T03:53:49;3.67;;;2.93;;
1811;SDS011;904;47.814;11.134;2023-07-13T03:56:18;5.73;;;3.67;;
1811;SDS011;904;47.814;11.134;2023-07-13T03:58:46;6.77;;;4.07;;
1811;SDS011;904;47.814;11.134;2023-07-13T04:01:14;4.70;;;3.80;;
1811;SDS011;904;47.814;11.134;2023-07-13T04:03:42;4.70;;;3.53;;
1811;SDS011;904;47.814;11.134;2023-07-13T04:06:13;7.90;;;3.73;;
1811;SDS011;904;47.814;11.134;2023-07-13T04:08:46;5.10;;;3.83;;
1811;SDS011;904;47.814;11.134;2023-07-13T04:11:15;5.80;;;4.17;;
1811;SDS011;904;47.814;11.134;2023-07-13T04:13:44;8.93;;;4.00;;
1811;SDS011;904;47.814;11.134;2023-07-13T04:16:11;5.53;;;3.83;;
1811;SDS011;904;47.814;11.134;2023-07-13T04:18:38;6.07;;;3.80;;
1811;SDS011;904;47.814;11.134;2023-07-13T04:21:06;5.57;;;4.17;;
1811;SDS011;904;47.814;11.134;2023-07-13T04:23:33;5.70;;;4.03;;
1811;SDS011;904;47.814;11.134;2023-07-13T04:26:00;7.70;;;4.07;;
1811;SDS011;904;47.814;11.134;2023-07-13T04:28:28;5.83;;;4.30;;
1811;SDS011;904;47.814;11.134;2023-07-13T04:30:56;7.10;;;3.80;;
1811;SDS011;904;47.814;11.134;2023-07-13T04:33:23;5.83;;;4.33;;
1811;SDS011;904;47.814;11.134;2023-07-13T04:35:49;5.10;;;4.60;;
1811;SDS011;904;47.814;11.134;2023-07-13T04:38:21;5.27;;;3.67;;
1811;SDS011;904;47.814;11.134;2023-07-13T04:40:49;7.73;;;4.27;;
1811;SDS011;904;47.814;11.134;2023-07-13T04:43:16;8.97;;;3.40;;
1811;SDS011;904;47.814;11.134;2023-07-13T04:45:45;5.03;;;3.43;;
1811;SDS011;904;47.814;11.134;2023-07-13T04:48:12;11.33;;;4.20;;
1811;SDS011;904;47.814;11.134;2023-07-13T04:50:39;10.53;;;4.10;;
1811;SDS011;904;47.814;11.134;2023-07-13T04:53:06;5.60;;;4.43;;
1811;SDS011;904;47.814;11.134;2023-07-13T04:55:33;5.23;;;3.30;;
1811;SDS011;904;47.814;11.134;2023-07-13T04:58:00;7.57;;;4.60;;
1811;SDS011;904;47.814;11.134;2023-07-13T05:00:27;6.07;;;4.50;;
1811;SDS011;904;47.814;11.134;2023-07-13T05:02:57;5.83;;;4.50;;
1811;SDS011;904;47.814;11.134;2023-07-13T05:05:25;5.90;;;4.33;;
1811;SDS011;904;47.814;11.134;2023-07-13T05:07:52;8.20;;;4.50;;
1811;SDS011;904;47.814;11.134;2023-07-13T05:10:20;4.37;;;3.80;;
1811;SDS011;904;47.814;11.134;2023-07-13T05:12:47;6.73;;;4.33;;
1811;SDS011;904;47.814;11.134;2023-07-13T05:15:14;7.50;;;4.07;;
1811;SDS011;904;47.814;11.134;2023-07-13T05:17:45;6.90;;;4.17;;
1811;SDS011;904;47.814;11.134;2023-07-13T05:20:15;8.07;;;4.50;;
1811;SDS011;904;47.814;11.134;2023-07-13T05:22:42;6.90;;;4.60;;
1811;SDS011;904;47.814;11.134;2023-07-13T05:25:11;5.03;;;3.20;;
1811;SDS011;904;47.814;11.134;2023-07-13T05:27:39;5.07;;;4.23;;
1811;SDS011;904;47.814;11.134;2023-07-13T05:30:06;5.07;;;4.27;;
1811;SDS011;904;47.814;11.134;2023-07-13T05:32:35;5.00;;;3.60;;
1811;SDS011;904;47.814;11.134;2023-07-13T05:35:03;8.23;;;4.57;;
1811;SDS011;904;47.814;11.134;2023-07-13T05:37:31;6.10;;;4.27;;
1811;SDS011;904;47.814;11.134;2023-07-13T05:39:58;5.53;;;3.90;;
1811;SDS011;904;47.814;11.134;2023-07-13T05:42:25;9.13;;;5.03;;
1811;SDS011;904;47.814;11.134;2023-07-13T05:44:52;6.83;;;4.83;;
1811;SDS011;904;47.814;11.134;2023-07-13T05:47:19;7.30;;;4.87;;
1811;SDS011;904;47.814;11.134;2023-07-13T05:49:46;4.30;;;3.40;;
1811;SDS011;904;47.814;11.134;2023-07-13T05:52:13;4.63;;;3.87;;
1811;SDS011;904;47.814;11.134;2023-07-13T05:54:41;5.63;;;4.23;;
1811;SDS011;904;47.814;11.134;2023-07-13T05:57:08;7.03;;;5.10;;
1811;SDS011;904;47.814;11.134;2023-07-13T05:59:35;7.23;;;4.87;;
1811;SDS011;904;47.814;11.134;2023-07-13T06:02:03;6.17;;;4.53;;
1811;SDS011;904;47.814;11.134;2023-07-13T06:04:30;6.23;;;3.90;;
1811;SDS011;904;47.814;11.134;2023-07-13T06:06:57;6.07;;;4.90;;
1811;SDS011;904;47.814;11.134;2023-07-13T06:09:25;4.40;;;3.67;;
1811;SDS011;904;47.814;11.134;2023-07-13T06:11:54;5.77;;;4.27;;
1811;SDS011;904;47.814;11.134;2023-07-13T06:14:21;4.87;;;3.80;;
1811;SDS011;904;47.814;11.134;2023-07-13T06:16:48;6.63;;;3.80;;
1811;SDS011;904;47.814;11.134;2023-07-13T06:19:15;7.00;;;5.57;;
1811;SDS011;904;47.814;11.134;2023-07-13T06:21:42;9.30;;;4.70;;
1811;SDS011;904;47.814;11.134;2023-07-13T06:24:08;6.80;;;4.30;;
1811;SDS011;904;47.814;11.134;2023-07-13T06:26:35;5.70;;;4.37;;
1811;SDS011;904;47.814;11.134;2023-07-13T06:29:04;7.60;;;3.87;;
1811;SDS011;904;47.814;11.134;2023-07-13T06:31:31;11.67;;;4.47;;
1811;SDS011;904;47.814;11.134;2023-07-13T06:33:58;6.50;;;4.40;;
1811;SDS011;904;47.814;11.134;2023-07-13T06:36:25;10.40;;;4.30;;
1811;SDS011;904;47.814;11.134;2023-07-13T06:38:52;8.43;;;4.50;;
1811;SDS011;904;47.814;11.134;2023-07-13T06:41:18;7.83;;;4.07;;
1811;SDS011;904;47.814;11.134;2023-07-13T06:43:47;7.40;;;3.80;;
1811;SDS011;904;47.814;11.134;2023-07-13T06:46:15;6.10;;;4.13;;
1811;SDS011;904;47.814;11.134;2023-07-13T06:48:42;7.20;;;3.67;;
1811;SDS011;904;47.814;11.134;2023-07-13T06:51:09;6.83;;;3.73;;
1811;SDS011;904;47.814;11.134;2023-07-13T06:53:36;5.57;;;3.83;;
1811;SDS011;904;47.814;11.134;2023-07-13T06:56:03;6.53;;;4.37;;
1811;SDS011;904;47.814;11.134;2023-07-13T06:58:30;5.10;;;3.53;;
1811;SDS011;904;47.814;11.134;2023-07-13T07:00:57;5.33;;;3.63;;
1811;SDS011;904;47.814;11.134;2023-07-13T07:03:25;4.13;;;2.90;;
1811;SDS011;904;47.814;11.134;2023-07-13T07:05:52;9.57;;;3.77;;
1811;SDS011;904;47.814;11.134;2023-07-13T07:08:19;8.50;;;3.20;;
1811;SDS011;904;47.814;11.134;2023-07-13T07:10:46;6.07;;;3.27;;
1811;SDS011;904;47.814;11.134;2023-07-13T07:13:16;4.30;;;2.87;;
1811;SDS011;904;47.814;11.134;2023-07-13T07:15:43;5.60;;;3.60;;
1811;SDS011;904;47.814;11.134;2023-07-13T07:18:10;4.30;;;3.03;;
1811;SDS011;904;47.814;11.134;2023-07-13T07:20:38;7.13;;;3.27;;
1811;SDS011;904;47.814;11.134;2023-07-13T07:23:05;4.77;;;3.23;;
1811;SDS011;904;47.814;11.134;2023-07-13T07:25:32;5.80;;;3.20;;
1811;SDS011;904;47.814;11.134;2023-07-13T07:28:02;6.07;;;3.10;;
1811;SDS011;904;47.814;11.134;2023-07-13T07:30:29;9.10;;;3.20;;
1811;SDS011;904;47.814;11.134;2023-07-13T07:32:56;7.27;;;3.50;;
1811;SDS011;904;47.814;11.134;2023-07-13T07:35:23;5.60;;;2.93;;
1811;SDS011;904;47.814;11.134;2023-07-13T07:37:51;5.43;;;3.00;;
1811;SDS011;904;47.814;11.134;2023-07-13T07:40:18;5.87;;;3.10;;
1811;SDS011;904;47.814;11.134;2023-07-13T07:42:45;8.27;;;3.43;;
1811;SDS011;904;47.814;11.134;2023-07-13T07:45:13;3.70;;;2.60;;
1811;SDS011;904;47.814;11.134;2023-07-13T07:47:40;5.40;;;2.67;;
1811;SDS011;904;47.814;11.134;2023-07-13T07:50:07;4.77;;;2.63;;
1811;SDS011;904;47.814;11.134;2023-07-13T07:52:35;4.93;;;2.97;;
1811;SDS011;904;47.814;11.134;2023-07-13T07:55:04;10.03;;;3.20;;
1811;SDS011;904;47.814;11.134;2023-07-13T07:57:32;3.30;;;2.40;;
1811;SDS011;904;47.814;11.134;2023-07-13T07:59:59;7.33;;;2.27;;
1811;SDS011;904;47.814;11.134;2023-07-13T08:02:26;4.40;;;2.13;;
1811;SDS011;904;47.814;11.134;2023-07-13T08:04:53;3.57;;;1.73;;
1811;SDS011;904;47.814;11.134;2023-07-13T08:07:20;4.47;;;1.80;;
1811;SDS011;904;47.814;11.134;2023-07-13T08:09:47;7.67;;;2.93;;
1811;SDS011;904;47.814;11.134;2023-07-13T08:12:18;5.43;;;2.47;;
1811;SDS011;904;47.814;11.134;2023-07-13T08:14:45;5.63;;;2.40;;
1811;SDS011;904;47.814;11.134;2023-07-13T08:17:18;4.67;;;2.20;;
1811;SDS011;904;47.814;11.134;2023-07-13T08:19:45;9.37;;;3.37;;
1811;SDS011;904;47.814;11.134;2023-07-13T08:22:12;3.67;;;2.10;;
1811;SDS011;904;47.814;11.134;2023-07-13T08:24:39;4.70;;;2.40;;
1811;SDS011;904;47.814;11.134;2023-07-13T08:27:07;5.30;;;2.73;;
1811;SDS011;904;47.814;11.134;2023-07-13T08:29:35;5.17;;;2.07;;
1811;SDS011;904;47.814;11.134;2023-07-13T08:32:02;4.37;;;2.50;;
1811;SDS011;904;47.814;11.134;2023-07-13T08:34:31;14.00;;;4.60;;
1811;SDS011;904;47.814;11.134;2023-07-13T08:36:57;7.23;;;2.40;;
1811;SDS011;904;47.814;11.134;2023-07-13T08:39:24;5.60;;;2.40;;
1811;SDS011;904;47.814;11.134;2023-07-13T08:41:54;7.40;;;2.73;;
1811;SDS011;904;47.814;11.134;2023-07-13T08:44:27;3.83;;;2.50;;
1811;SDS011;904;47.814;11.134;2023-07-13T08:47:06;7.23;;;2.60;;
1811;SDS011;904;47.814;11.134;2023-07-13T08:49:35;6.63;;;3.10;;
1811;SDS011;904;47.814;11.134;2023-07-13T08:52:04;4.80;;;2.10;;
1811;SDS011;904;47.814;11.134;2023-07-13T08:54:36;6.40;;;2.60;;
1811;SDS011;904;47.814;11.134;2023-07-13T08:57:09;7.90;;;2.63;;
1811;SDS011;904;47.814;11.134;2023-07-13T08:59:39;5.10;;;2.70;;
1811;SDS011;904;47.814;11.134;2023-07-13T09:02:16;5.27;;;2.80;;
1811;SDS011;904;47.814;11.134;2023-07-13T09:04:49;5.37;;;3.27;;
1811;SDS011;904;47.814;11.134;2023-07-13T09:07:21;12.03;;;2.60;;
1811;SDS011;904;47.814;11.134;2023-07-13T09:10:02;8.13;;;2.90;;
1811;SDS011;904;47.814;11.134;2023-07-13T09:12:39;11.53;;;2.70;;
1811;SDS011;904;47.814;11.134;2023-07-13T09:15:21;5.33;;;2.43;;
1811;SDS011;904;47.814;11.134;2023-07-13T09:17:52;5.90;;;2.20;;
1811;SDS011;904;47.814;11.134;2023-07-13T09:20:23;7.67;;;3.70;;
1811;SDS011;904;47.814;11.134;2023-07-13T09:22:53;6.63;;;2.83;;
1811;SDS011;904;47.814;11.134;2023-07-13T09:25:24;4.83;;;3.10;;
1811;SDS011;904;47.814;11.134;2023-07-13T09:27:56;5.83;;;3.40;;
1811;SDS011;904;47.814;11.134;2023-07-13T09:30:27;5.57;;;3.60;;
1811;SDS011;904;47.814;11.134;2023-07-13T09:33:01;4.97;;;3.27;;
1811;SDS011;904;47.814;11.134;2023-07-13T09:35:29;7.60;;;4.00;;
1811;SDS011;904;47.814;11.134;2023-07-13T09:37:59;6.87;;;3.97;;
1811;SDS011;904;47.814;11.134;2023-07-13T09:40:34;10.30;;;3.80;;
1811;SDS011;904;47.814;11.134;2023-07-13T09:43:07;5.33;;;2.60;;
1811;SDS011;904;47.814;11.134;2023-07-13T09:45:39;6.73;;;2.30;;
1811;SDS011;904;47.814;11.134;2023-07-13T09:48:11;4.83;;;2.87;;
1811;SDS011;904;47.814;11.134;2023-07-13T09:50:39;6.83;;;2.93;;
1811;SDS011;904;47.814;11.134;2023-07-13T09:53:11;8.13;;;3.20;;
1811;SDS011;904;47.814;11.134;2023-07-13T09:55:39;5.90;;;3.30;;
1811;SDS011;904;47.814;11.134;2023-07-13T09:58:09;6.33;;;3.10;;
1811;SDS011;904;47.814;11.134;2023-07-13T10:00:38;9.80;;;3.17;;
1811;SDS011;904;47.814;11.134;2023-07-13T10:03:14;5.47;;;3.00;;
1811;SDS011;904;47.814;11.134;2023-07-13T10:05:44;4.47;;;3.03;;
1811;SDS011;904;47.814;11.134;2023-07-13T10:08:20;5.07;;;2.70;;
1811;SDS011;904;47.814;11.134;2023-07-13T10:10:52;4.30;;;2.40;;
1811;SDS011;904;47.814;11.134;2023-07-13T10:13:31;4.40;;;2.10;;
1811;SDS011;904;47.814;11.134;2023-07-13T10:16:02;3.23;;;2.23;;
1811;SDS011;904;47.814;11.134;2023-07-13T10:18:34;4.47;;;2.77;;
1811;SDS011;904;47.814;11.134;2023-07-13T10:21:12;9.43;;;2.50;;
1811;SDS011;904;47.814;11.134;2023-07-13T10:23:41;4.97;;;2.97;;
1811;SDS011;904;47.814;11.134;2023-07-13T10:26:12;5.30;;;2.50;;
1811;SDS011;904;47.814;11.134;2023-07-13T10:28:42;4.83;;;2.70;;
1811;SDS011;904;47.814;11.134;2023-07-13T10:31:13;4.83;;;2.63;;
1811;SDS011;904;47.814;11.134;2023-07-13T10:33:44;6.33;;;2.13;;
1811;SDS011;904;47.814;11.134;2023-07-13T10:36:13;5.37;;;2.20;;
1811;SDS011;904;47.814;11.134;2023-07-13T10:38:44;7.53;;;2.10;;
1811;SDS011;904;47.814;11.134;2023-07-13T10:41:14;4.77;;;1.83;;
1811;SDS011;904;47.814;11.134;2023-07-13T10:43:45;3.70;;;1.80;;
1811;SDS011;904;47.814;11.134;2023-07-13T10:46:16;2.97;;;2.07;;
1811;SDS011;904;47.814;11.134;2023-07-13T10:48:49;7.83;;;1.83;;
1811;SDS011;904;47.814;11.134;2023-07-13T10:51:19;6.70;;;1.80;;
1811;SDS011;904;47.814;11.134;2023-07-13T10:53:47;3.93;;;1.40;;
1811;SDS011;904;47.814;11.134;2023-07-13T10:56:38;3.30;;;1.90;;
1811;SDS011;904;47.814;11.134;2023-07-13T10:59:09;7.20;;;2.17;;
1811;SDS011;904;47.814;11.134;2023-07-13T11:01:40;5.30;;;2.00;;
1811;SDS011;904;47.814;11.134;2023-07-13T11:04:19;2.10;;;1.10;;
1811;SDS011;904;47.814;11.134;2023-07-13T11:06:56;5.27;;;1.93;;
1811;SDS011;904;47.814;11.134;2023-07-13T11:09:50;2.57;;;1.30;;
1811;SDS011;904;47.814;11.134;2023-07-13T11:12:27;3.87;;;1.47;;
1811;SDS011;904;47.814;11.134;2023-07-13T11:15:15;4.03;;;1.80;;
1811;SDS011;904;47.814;11.134;2023-07-13T11:17:55;2.77;;;1.60;;
1811;SDS011;904;47.814;11.134;2023-07-13T11:20:39;4.30;;;1.40;;
1811;SDS011;904;47.814;11.134;2023-07-13T11:23:26;5.43;;;1.30;;
1811;SDS011;904;47.814;11.134;2023-07-13T11:25:57;6.83;;;1.60;;
1811;SDS011;904;47.814;11.134;2023-07-13T11:28:26;3.30;;;1.50;;
1811;SDS011;904;47.814;11.134;2023-07-13T11:31:00;3.93;;;1.77;;
1811;SDS011;904;47.814;11.134;2023-07-13T11:33:44;3.23;;;1.43;;
1811;SDS011;904;47.814;11.134;2023-07-13T11:36:24;3.70;;;1.50;;
1811;SDS011;904;47.814;11.134;2023-07-13T11:38:59;5.27;;;1.73;;
1811;SDS011;904;47.814;11.134;2023-07-13T11:41:36;4.30;;;1.53;;
1811;SDS011;904;47.814;11.134;2023-07-13T11:44:11;3.70;;;1.50;;
1811;SDS011;904;47.814;11.134;2023-07-13T11:46:44;4.97;;;1.67;;
1811;SDS011;904;47.814;11.134;2023-07-13T11:49:15;5.50;;;1.43;;
1811;SDS011;904;47.814;11.134;2023-07-13T11:51:44;2.90;;;1.40;;
1811;SDS011;904;47.814;11.134;2023-07-13T11:54:22;2.57;;;1.43;;
1811;SDS011;904;47.814;11.134;2023-07-13T11:56:51;3.53;;;1.67;;
1811;SDS011;904;47.814;11.134;2023-07-13T11:59:19;2.87;;;1.37;;
1811;SDS011;904;47.814;11.134;2023-07-13T12:01:49;5.90;;;1.83;;
1811;SDS011;904;47.814;11.134;2023-07-13T12:04:21;5.33;;;1.97;;
1811;SDS011;904;47.814;11.134;2023-07-13T12:06:55;4.53;;;1.60;;
1811;SDS011;904;47.814;11.134;2023-07-13T12:09:25;3.20;;;1.77;;
1811;SDS011;904;47.814;11.134;2023-07-13T12:11:55;7.13;;;2.63;;
1811;SDS011;904;47.814;11.134;2023-07-13T12:14:26;5.83;;;1.70;;
1811;SDS011;904;47.814;11.134;2023-07-13T12:16:54;4.10;;;1.60;;
1811;SDS011;904;47.814;11.134;2023-07-13T12:19:22;4.33;;;2.00;;
1811;SDS011;904;47.814;11.134;2023-07-13T12:21:52;4.83;;;1.80;;
1811;SDS011;904;47.814;11.134;2023-07-13T12:24:23;3.90;;;1.67;;
1811;SDS011;904;47.814;11.134;2023-07-13T12:26:51;3.47;;;1.80;;
1811;SDS011;904;47.814;11.134;2023-07-13T12:29:19;6.10;;;1.60;;
1811;SDS011;904;47.814;11.134;2023-07-13T12:31:47;5.03;;;1.80;;
1811;SDS011;904;47.814;11.134;2023-07-13T12:34:15;3.47;;;1.70;;
1811;SDS011;904;47.814;11.134;2023-07-13T12:36:46;6.73;;;1.57;;
1811;SDS011;904;47.814;11.134;2023-07-13T12:39:16;3.10;;;1.70;;
1811;SDS011;904;47.814;11.134;2023-07-13T12:41:47;6.60;;;2.17;;
1811;SDS011;904;47.814;11.134;2023-07-13T12:44:15;4.80;;;1.73;;
1811;SDS011;904;47.814;11.134;2023-07-13T12:46:54;4.40;;;1.50;;
1811;SDS011;904;47.814;11.134;2023-07-13T12:49:25;4.00;;;2.00;;
1811;SDS011;904;47.814;11.134;2023-07-13T12:51:57;4.47;;;1.93;;
1811;SDS011;904;47.814;11.134;2023-07-13T12:54:26;3.33;;;1.60;;
1811;SDS011;904;47.814;11.134;2023-07-13T12:56:55;4.27;;;1.97;;
1811;SDS011;904;47.814;11.134;2023-07-13T12:59:25;6.03;;;1.93;;
1811;SDS011;904;47.814;11.134;2023-07-13T13:02:01;4.70;;;2.03;;
1811;SDS011;904;47.814;11.134;2023-07-13T13:04:40;3.70;;;2.00;;
1811;SDS011;904;47.814;11.134;2023-07-13T13:07:09;3.50;;;1.83;;
1811;SDS011;904;47.814;11.134;2023-07-13T13:09:36;4.10;;;2.30;;
1811;SDS011;904;47.814;11.134;2023-07-13T13:12:05;4.93;;;2.10;;
1811;SDS011;904;47.814;11.134;2023-07-13T13:14:33;4.77;;;2.30;;
1811;SDS011;904;47.814;11.134;2023-07-13T13:17:01;3.63;;;1.80;;
1811;SDS011;904;47.814;11.134;2023-07-13T13:19:28;3.90;;;1.80;;
1811;SDS011;904;47.814;11.134;2023-07-13T13:21:56;5.43;;;1.70;;
1811;SDS011;904;47.814;11.134;2023-07-13T13:24:26;3.43;;;1.70;;
1811;SDS011;904;47.814;11.134;2023-07-13T13:26:58;5.47;;;2.47;;
1811;SDS011;904;47.814;11.134;2023-07-13T13:29:30;4.27;;;1.90;;
1811;SDS011;904;47.814;11.134;2023-07-13T13:31:58;8.07;;;1.90;;
1811;SDS011;904;47.814;11.134;2023-07-13T13:34:25;5.93;;;2.00;;
1811;SDS011;904;47.814;11.134;2023-07-13T13:36:52;5.97;;;2.20;;
1811;SDS011;904;47.814;11.134;2023-07-13T13:39:21;3.00;;;1.53;;
1811;SDS011;904;47.814;11.134;2023-07-13T13:41:51;7.33;;;3.03;;
1811;SDS011;904;47.814;11.134;2023-07-13T13:44:19;3.37;;;2.20;;
1811;SDS011;904;47.814;11.134;2023-07-13T13:46:51;5.90;;;2.03;;
1811;SDS011;904;47.814;11.134;2023-07-13T13:49:21;4.13;;;1.90;;
1811;SDS011;904;47.814;11.134;2023-07-13T13:51:50;4.20;;;2.13;;
1811;SDS011;904;47.814;11.134;2023-07-13T13:54:18;3.47;;;1.80;;
1811;SDS011;904;47.814;11.134;2023-07-13T13:56:46;5.60;;;2.50;;
1811;SDS011;904;47.814;11.134;2023-07-13T13:59:19;2.60;;;1.90;;
1811;SDS011;904;47.814;11.134;2023-07-13T14:01:47;7.93;;;2.10;;
1811;SDS011;904;47.814;11.134;2023-07-13T14:04:17;4.50;;;1.73;;
1811;SDS011;904;47.814;11.134;2023-07-13T14:06:45;6.10;;;2.27;;
1811;SDS011;904;47.814;11.134;2023-07-13T14:09:17;3.77;;;1.87;;
1811;SDS011;904;47.814;11.134;2023-07-13T14:11:45;3.70;;;1.90;;
1811;SDS011;904;47.814;11.134;2023-07-13T14:14:14;7.77;;;2.20;;
1811;SDS011;904;47.814;11.134;2023-07-13T14:16:43;4.93;;;2.13;;
1811;SDS011;904;47.814;11.134;2023-07-13T14:19:12;4.63;;;1.90;;
1811;SDS011;904;47.814;11.134;2023-07-13T14:21:41;5.33;;;2.10;;
1811;SDS011;904;47.814;11.134;2023-07-13T14:24:08;7.10;;;1.83;;
1811;SDS011;904;47.814;11.134;2023-07-13T14:26:36;6.80;;;2.07;;
1811;SDS011;904;47.814;11.134;2023-07-13T14:29:05;4.80;;;2.13;;
1811;SDS011;904;47.814;11.134;2023-07-13T14:31:39;4.17;;;1.80;;
1811;SDS011;904;47.814;11.134;2023-07-13T14:34:12;5.67;;;1.87;;
1811;SDS011;904;47.814;11.134;2023-07-13T14:36:41;5.43;;;2.10;;
1811;SDS011;904;47.814;11.134;2023-07-13T14:39:11;3.60;;;2.10;;
1811;SDS011;904;47.814;11.134;2023-07-13T14:41:39;3.47;;;1.60;;
1811;SDS011;904;47.814;11.134;2023-07-13T14:44:12;4.17;;;1.83;;
1811;SDS011;904;47.814;11.134;2023-07-13T14:46:41;3.37;;;1.70;;
1811;SDS011;904;47.814;11.134;2023-07-13T14:49:11;6.00;;;2.83;;
1811;SDS011;904;47.814;11.134;2023-07-13T14:51:44;3.10;;;1.63;;
1811;SDS011;904;47.814;11.134;2023-07-13T14:54:11;8.80;;;2.50;;
1811;SDS011;904;47.814;11.134;2023-07-13T14:56:38;5.00;;;1.50;;
1811;SDS011;904;47.814;11.134;2023-07-13T14:59:05;7.10;;;1.73;;
1811;SDS011;904;47.814;11.134;2023-07-13T15:01:32;6.00;;;2.27;;
1811;SDS011;904;47.814;11.134;2023-07-13T15:04:00;6.73;;;1.83;;
1811;SDS011;904;47.814;11.134;2023-07-13T15:06:29;3.33;;;1.50;;
1811;SDS011;904;47.814;11.134;2023-07-13T15:08:58;4.67;;;2.43;;
1811;SDS011;904;47.814;11.134;2023-07-13T15:11:25;5.63;;;1.87;;
1811;SDS011;904;47.814;11.134;2023-07-13T15:13:52;5.43;;;2.00;;
1811;SDS011;904;47.814;11.134;2023-07-13T15:16:21;5.10;;;1.90;;
1811;SDS011;904;47.814;11.134;2023-07-13T15:18:51;3.90;;;1.70;;
1811;SDS011;904;47.814;11.134;2023-07-13T15:21:20;7.50;;;1.60;;
1811;SDS011;904;47.814;11.134;2023-07-13T15:23:49;3.63;;;1.90;;
1811;SDS011;904;47.814;11.134;2023-07-13T15:26:18;6.30;;;1.97;;
1811;SDS011;904;47.814;11.134;2023-07-13T15:28:46;4.90;;;2.20;;